Time;durP1;ratioP1;P1;durP2;ratioP2;P2;SDS_P1;SDS_P2;PMS_P1;PMS_P2;Temp;Humidity;BMP_temperature;BMP_pressure;BME280_temperature;BME280_humidity;BME280_pressure;Samples;Min_cycle;Max_cycle;Signal;HPM_P1;HPM_P2
2024/01/12 00:00:21;;;;;;;108.73;30.20;;;;;;;;;;6084562;23;20225;-92
2024/01/12 00:03:29;;;;;;;111.73;32.00;;;;;;;;;;6084435;23;20154;-91
2024/01/12 00:06:38;;;;;;;114.10;31.80;;;;;;;;;;6086620;23;20561;-91
2024/01/12 00:09:45;;;;;;;116.33;33.00;;;;;;;;;;6088952;23;20215;-91
2024/01/12 00:12:51;;;;;;;110.10;31.03;;;;;;;;;;6088198;23;20235;-93
2024/01/12 00:15:59;;;;;;;105.20;31.47;;;;;;;;;;6088046;23;20247;-91
2024/01/12 00:19:04;;;;;;;106.23;32.20;;;;;;;;;;6087786;23;20195;-91
2024/01/12 00:22:10;;;;;;;109.70;30.60;;;;;;;;;;6087178;23;20171;-94
2024/01/12 00:25:17;;;;;;;106.30;33.67;;;;;;;;;;6087505;23;20171;-92
2024/01/12 00:28:23;;;;;;;99.47;30.20;;;;;;;;;;6089617;23;20171;-92
2024/01/12 00:31:33;;;;;;;108.17;30.93;;;;;;;;;;6090179;23;20214;-92
2024/01/12 00:34:38;;;;;;;104.10;32.93;;;;;;;;;;6088723;23;20191;-91
2024/01/12 00:37:43;;;;;;;116.50;35.47;;;;;;;;;;6088378;23;20204;-92
2024/01/12 00:40:52;;;;;;;103.23;31.97;;;;;;;;;;6089132;23;20174;-92
2024/01/12 00:43:57;;;;;;;110.37;31.53;;;;;;;;;;6088943;23;20211;-94
2024/01/12 00:47:03;;;;;;;109.17;32.13;;;;;;;;;;6088334;23;20215;-92
2024/01/12 00:50:09;;;;;;;122.50;36.23;;;;;;;;;;6087595;23;20303;-91
2024/01/12 00:53:15;;;;;;;110.53;31.77;;;;;;;;;;6088368;23;20235;-93
2024/01/12 00:56:22;;;;;;;119.00;31.83;;;;;;;;;;6088770;23;20174;-92
2024/01/12 00:59:28;;;;;;;108.20;30.63;;;;;;;;;;6088461;23;20191;-93
2024/01/12 01:02:34;;;;;;;130.00;33.97;;;;;;;;;;6088776;23;20166;-92
2024/01/12 01:05:43;;;;;;;123.27;34.07;;;;;;;;;;6087592;23;20170;-92
2024/01/12 01:08:49;;;;;;;123.73;34.10;;;;;;;;;;6088107;23;20232;-91
2024/01/12 01:11:56;;;;;;;116.87;31.77;;;;;;;;;;6088434;23;20171;-92
2024/01/12 01:15:04;;;;;;;104.23;30.67;;;;;;;;;;6089127;23;20175;-93
2024/01/12 01:18:11;;;;;;;100.67;32.10;;;;;;;;;;6088163;23;20178;-91
2024/01/12 01:21:17;;;;;;;95.70;30.87;;;;;;;;;;6087549;23;20514;-92
2024/01/12 01:24:26;;;;;;;108.43;34.10;;;;;;;;;;6088770;23;20150;-93
2024/01/12 01:27:36;;;;;;;122.00;35.47;;;;;;;;;;6088702;23;20278;-91
2024/01/12 01:30:42;;;;;;;114.13;32.37;;;;;;;;;;6087919;23;20178;-92
2024/01/12 01:33:47;;;;;;;107.60;32.77;;;;;;;;;;6088158;23;20194;-92
2024/01/12 01:36:57;;;;;;;108.93;33.00;;;;;;;;;;6086724;23;20239;-91
2024/01/12 01:40:07;;;;;;;112.27;32.37;;;;;;;;;;6087861;23;20158;-91
2024/01/12 01:43:15;;;;;;;111.30;33.37;;;;;;;;;;6088154;23;20200;-92
2024/01/12 01:46:21;;;;;;;115.47;32.33;;;;;;;;;;6088073;23;20197;-92
2024/01/12 01:49:27;;;;;;;102.20;29.30;;;;;;;;;;6085592;23;20240;-91
2024/01/12 01:52:33;;;;;;;94.03;27.20;;;;;;;;;;6083297;23;20158;-93
2024/01/12 01:55:43;;;;;;;117.80;34.13;;;;;;;;;;6085068;23;20163;-92
2024/01/12 01:58:50;;;;;;;113.67;31.93;;;;;;;;;;6086680;23;20254;-92
2024/01/12 02:01:56;;;;;;;111.83;32.57;;;;;;;;;;6089115;23;20223;-91
2024/01/12 02:05:04;;;;;;;107.50;31.23;;;;;;;;;;6088319;23;20188;-92
2024/01/12 02:08:09;;;;;;;121.53;34.47;;;;;;;;;;6086309;23;20274;-92
2024/01/12 02:14:36;;;;;;;100.07;29.67;;;;;;;;;;6078959;23;20245;-93
2024/01/12 02:17:43;;;;;;;113.40;32.53;;;;;;;;;;6087321;23;20262;-92
2024/01/12 02:20:48;;;;;;;114.33;36.27;;;;;;;;;;6086876;23;20158;-92
2024/01/12 02:23:54;;;;;;;116.57;32.53;;;;;;;;;;6085651;23;20157;-91
2024/01/12 02:27:00;;;;;;;109.50;31.50;;;;;;;;;;6085905;23;20179;-92
2024/01/12 02:30:06;;;;;;;120.73;32.47;;;;;;;;;;6086426;23;20153;-92
2024/01/12 02:33:11;;;;;;;104.33;31.97;;;;;;;;;;6086546;23;20176;-92
2024/01/12 02:36:17;;;;;;;110.80;34.20;;;;;;;;;;6085550;23;20158;-94
2024/01/12 02:39:23;;;;;;;112.80;33.73;;;;;;;;;;6086170;23;20215;-94
2024/01/12 02:42:29;;;;;;;111.67;34.40;;;;;;;;;;6088116;23;20206;-95
2024/01/12 02:45:34;;;;;;;109.53;35.07;;;;;;;;;;6086915;23;20610;-94
2024/01/12 02:48:40;;;;;;;108.23;32.83;;;;;;;;;;6085439;23;20202;-93
2024/01/12 02:51:47;;;;;;;114.17;34.53;;;;;;;;;;6086315;23;20178;-92
2024/01/12 02:54:54;;;;;;;119.97;33.60;;;;;;;;;;6085537;23;20215;-93
2024/01/12 02:57:59;;;;;;;112.87;33.67;;;;;;;;;;6085014;23;20163;-93
2024/01/12 03:01:04;;;;;;;118.57;33.47;;;;;;;;;;6086296;23;20590;-92
2024/01/12 03:04:10;;;;;;;106.60;32.43;;;;;;;;;;6086475;23;20155;-91
2024/01/12 03:07:15;;;;;;;117.53;36.43;;;;;;;;;;6087015;23;20233;-94
2024/01/12 03:10:23;;;;;;;117.97;34.37;;;;;;;;;;6086033;23;20166;-91
2024/01/12 03:13:29;;;;;;;112.17;34.80;;;;;;;;;;6085829;23;20224;-90
2024/01/12 03:16:34;;;;;;;114.20;32.57;;;;;;;;;;6085456;23;20170;-91
2024/01/12 03:19:39;;;;;;;115.50;33.67;;;;;;;;;;6085593;23;20179;-91
2024/01/12 03:22:44;;;;;;;113.30;31.60;;;;;;;;;;6086252;23;20211;-91
2024/01/12 03:25:52;;;;;;;118.67;33.13;;;;;;;;;;6085530;23;20196;-92
2024/01/12 03:28:57;;;;;;;119.50;34.70;;;;;;;;;;6084750;23;20239;-91
2024/01/12 03:32:02;;;;;;;129.10;37.53;;;;;;;;;;6079846;23;20201;-90
2024/01/12 03:35:09;;;;;;;123.37;35.60;;;;;;;;;;6085207;23;20175;-93
2024/01/12 03:38:14;;;;;;;126.90;37.43;;;;;;;;;;6086698;23;20165;-93
2024/01/12 03:41:21;;;;;;;113.60;34.00;;;;;;;;;;6085811;23;20543;-92
2024/01/12 03:44:26;;;;;;;108.60;30.43;;;;;;;;;;6086942;23;20217;-93
2024/01/12 03:47:32;;;;;;;118.77;33.37;;;;;;;;;;6085875;23;20191;-91
2024/01/12 03:50:37;;;;;;;112.03;31.93;;;;;;;;;;6083317;23;20188;-91
2024/01/12 03:53:42;;;;;;;100.30;28.47;;;;;;;;;;6084506;23;20289;-91
2024/01/12 03:56:49;;;;;;;121.30;33.50;;;;;;;;;;6085478;23;20211;-93
2024/01/12 03:59:54;;;;;;;128.30;38.40;;;;;;;;;;6085136;23;20180;-93
2024/01/12 04:03:04;;;;;;;110.77;34.47;;;;;;;;;;6085359;23;20184;-91
2024/01/12 04:06:10;;;;;;;125.67;35.00;;;;;;;;;;6087523;23;20176;-92
2024/01/12 04:09:15;;;;;;;117.47;33.83;;;;;;;;;;6086398;23;20210;-93
2024/01/12 04:12:22;;;;;;;123.93;35.03;;;;;;;;;;6088987;23;20171;-92
2024/01/12 04:15:28;;;;;;;104.43;31.00;;;;;;;;;;6087304;23;20218;-91
2024/01/12 04:18:34;;;;;;;127.90;38.00;;;;;;;;;;6090024;23;20154;-93
2024/01/12 04:21:40;;;;;;;132.43;39.40;;;;;;;;;;6087742;23;20171;-93
2024/01/12 04:24:46;;;;;;;119.27;35.87;;;;;;;;;;6089143;23;20274;-92
2024/01/12 04:27:53;;;;;;;113.47;33.43;;;;;;;;;;6089438;23;20249;-92
2024/01/12 04:30:59;;;;;;;119.17;34.40;;;;;;;;;;6089946;23;20170;-94
2024/01/12 04:34:05;;;;;;;116.77;37.13;;;;;;;;;;6089754;23;20170;-91
2024/01/12 04:37:13;;;;;;;108.47;32.70;;;;;;;;;;6089872;23;20195;-92
2024/01/12 04:40:19;;;;;;;111.77;35.73;;;;;;;;;;6088310;23;20223;-92
2024/01/12 04:43:26;;;;;;;130.93;34.70;;;;;;;;;;6089803;23;20271;-91
2024/01/12 04:46:19;;;;;;;122.70;35.30;;;;;;;;;;6098163;23;20197;-92
2024/01/12 04:49:24;;;;;;;122.53;35.40;;;;;;;;;;6117669;23;20170;-92
2024/01/12 04:52:30;;;;;;;110.87;33.67;;;;;;;;;;6101183;23;20195;-92
2024/01/12 04:55:45;;;;;;;119.17;35.67;;;;;;;;;;6119788;23;20248;-91
2024/01/12 04:58:54;;;;;;;121.10;36.20;;;;;;;;;;6101136;23;20293;-92
2024/01/12 05:02:00;;;;;;;113.13;34.77;;;;;;;;;;6117305;23;20154;-93
2024/01/12 05:05:08;;;;;;;104.77;32.70;;;;;;;;;;6100551;23;20149;-92
2024/01/12 05:08:14;;;;;;;116.43;33.17;;;;;;;;;;6099244;23;20181;-91
2024/01/12 05:11:22;;;;;;;113.70;34.33;;;;;;;;;;6116058;23;20198;-92
2024/01/12 05:14:30;;;;;;;114.67;32.27;;;;;;;;;;6101011;23;20271;-92
2024/01/12 05:17:39;;;;;;;116.53;36.33;;;;;;;;;;6115021;23;20601;-91
2024/01/12 05:20:45;;;;;;;138.13;40.50;;;;;;;;;;6107460;23;20202;-93
2024/01/12 05:23:50;;;;;;;117.63;34.13;;;;;;;;;;6087863;23;20223;-93
2024/01/12 05:26:56;;;;;;;138.97;39.67;;;;;;;;;;6089564;23;20175;-91
2024/01/12 05:30:03;;;;;;;132.53;39.50;;;;;;;;;;6087446;23;20166;-90
2024/01/12 05:36:28;;;;;;;114.63;34.00;;;;;;;;;;6087637;23;20188;-93
2024/01/12 05:39:34;;;;;;;119.00;33.83;;;;;;;;;;6090947;23;20192;-93
2024/01/12 05:42:39;;;;;;;119.03;32.93;;;;;;;;;;6089619;23;20259;-92
2024/01/12 05:45:46;;;;;;;105.80;31.63;;;;;;;;;;6090501;23;20191;-92
2024/01/12 05:48:52;;;;;;;120.63;36.97;;;;;;;;;;6090549;23;20247;-93
2024/01/12 05:51:57;;;;;;;122.00;33.30;;;;;;;;;;6088138;23;20199;-91
2024/01/12 05:55:04;;;;;;;113.67;31.70;;;;;;;;;;6089528;23;20158;-92
2024/01/12 05:58:10;;;;;;;107.57;31.83;;;;;;;;;;6088987;23;20155;-92
2024/01/12 06:01:18;;;;;;;110.17;33.60;;;;;;;;;;6089205;23;20150;-92
2024/01/12 06:04:25;;;;;;;111.83;33.27;;;;;;;;;;6090575;23;20291;-92
2024/01/12 06:25:40;;;;;;;123.63;33.13;;;;;;;;;;6033777;23;20184;-93
2024/01/12 06:28:46;;;;;;;118.23;33.40;;;;;;;;;;6033617;23;20203;-91
2024/01/12 06:31:52;;;;;;;118.27;35.10;;;;;;;;;;6031922;23;20270;-92
2024/01/12 06:34:58;;;;;;;109.13;33.67;;;;;;;;;;6030718;23;20156;-92
2024/01/12 06:38:03;;;;;;;113.07;32.20;;;;;;;;;;6031791;23;20152;-91
2024/01/12 06:41:18;;;;;;;111.97;35.67;;;;;;;;;;6030726;23;20243;-93
2024/01/12 06:51:13;;;;;;;91.90;26.63;;;;;;;;;;6048057;23;20192;-92
2024/01/12 06:54:18;;;;;;;107.20;30.67;;;;;;;;;;6047469;23;20192;-94
2024/01/12 07:09:49;;;;;;;126.30;38.13;;;;;;;;;;6091359;23;20239;-92
2024/01/12 07:12:55;;;;;;;115.67;30.03;;;;;;;;;;6087743;23;20604;-92
2024/01/12 07:18:57;;;;;;;115.40;33.03;;;;;;;;;;6051049;23;20200;-93
2024/01/12 07:22:07;;;;;;;114.63;33.93;;;;;;;;;;6087612;23;20174;-90
2024/01/12 07:25:18;;;;;;;122.40;34.07;;;;;;;;;;6086396;23;20175;-93
2024/01/12 07:28:26;;;;;;;128.07;34.77;;;;;;;;;;6087254;23;20210;-92
2024/01/12 07:43:43;;;;;;;122.37;37.43;;;;;;;;;;6055064;23;20174;-92
2024/01/12 07:46:49;;;;;;;123.83;36.20;;;;;;;;;;6057504;23;20186;-93
2024/01/12 07:49:57;;;;;;;124.03;33.70;;;;;;;;;;6058260;23;20170;-93
2024/01/12 07:53:07;;;;;;;104.27;30.23;;;;;;;;;;6061629;23;20196;-94
2024/01/12 07:56:14;;;;;;;127.50;37.23;;;;;;;;;;6062944;23;20223;-92
2024/01/12 07:59:36;;;;;;;123.47;34.63;;;;;;;;;;6060522;23;20192;-91
2024/01/12 08:02:43;;;;;;;126.17;37.07;;;;;;;;;;6060607;23;20189;-94
2024/01/12 08:05:50;;;;;;;128.40;38.50;;;;;;;;;;6060680;23;20182;-90
2024/01/12 08:08:56;;;;;;;132.23;36.77;;;;;;;;;;6062303;23;20195;-93
2024/01/12 08:12:02;;;;;;;120.60;34.60;;;;;;;;;;6060619;23;20166;-91
2024/01/12 08:18:04;;;;;;;123.00;35.67;;;;;;;;;;6059864;23;20215;-92
2024/01/12 08:21:12;;;;;;;124.03;34.83;;;;;;;;;;6118307;23;20194;-92
2024/01/12 08:24:18;;;;;;;108.57;32.10;;;;;;;;;;6117506;23;20170;-92
2024/01/12 08:27:24;;;;;;;116.60;33.27;;;;;;;;;;6113832;23;20170;-91
2024/01/12 09:28:27;;;;;;;138.73;37.50;;;;;;;;;;6087730;23;20213;-93
2024/01/12 09:31:34;;;;;;;151.47;43.33;;;;;;;;;;6089442;23;20166;-92
2024/01/12 09:34:41;;;;;;;281.97;71.73;;;;;;;;;;6086143;23;20222;-88
2024/01/12 09:37:48;;;;;;;135.83;38.53;;;;;;;;;;6087089;23;20158;-90
2024/01/12 09:40:53;;;;;;;131.63;37.07;;;;;;;;;;6086749;23;20250;-93
2024/01/12 09:44:00;;;;;;;113.27;32.33;;;;;;;;;;6085830;23;20218;-94
2024/01/12 09:47:06;;;;;;;109.80;30.13;;;;;;;;;;6088010;23;20214;-94
2024/01/12 09:50:12;;;;;;;120.20;35.20;;;;;;;;;;6086951;23;20204;-92
2024/01/12 09:56:37;;;;;;;124.90;37.83;;;;;;;;;;6085458;23;20176;-92
2024/01/12 09:59:45;;;;;;;122.03;34.43;;;;;;;;;;6085330;23;20166;-92
2024/01/12 10:02:52;;;;;;;131.00;34.80;;;;;;;;;;6086847;23;20167;-94
2024/01/12 10:09:24;;;;;;;120.60;33.03;;;;;;;;;;6086961;23;20243;-91
2024/01/12 10:12:35;;;;;;;126.03;34.43;;;;;;;;;;6086539;23;20158;-91
2024/01/12 10:19:05;;;;;;;130.83;36.27;;;;;;;;;;6085320;23;20195;-90
2024/01/12 10:22:14;;;;;;;129.57;37.77;;;;;;;;;;6085824;23;20227;-92
2024/01/12 10:25:20;;;;;;;128.97;38.00;;;;;;;;;;6068315;23;20173;-93
2024/01/12 10:28:34;;;;;;;139.40;39.47;;;;;;;;;;6086200;23;20258;-92
2024/01/12 10:31:44;;;;;;;133.33;35.70;;;;;;;;;;6085311;23;20183;-91
2024/01/12 10:34:52;;;;;;;119.53;34.27;;;;;;;;;;6085164;23;20287;-93
2024/01/12 10:38:05;;;;;;;111.73;35.20;;;;;;;;;;6089224;23;20242;-90
2024/01/12 10:41:13;;;;;;;137.13;37.03;;;;;;;;;;6083631;23;20178;-91
2024/01/12 10:44:23;;;;;;;133.00;36.70;;;;;;;;;;6085106;23;20151;-91
2024/01/12 10:47:32;;;;;;;136.97;39.47;;;;;;;;;;6087907;23;20166;-92
2024/01/12 10:50:50;;;;;;;118.27;36.50;;;;;;;;;;6087586;23;20219;-92
2024/01/12 12:04:22;;;;;;;136.00;38.30;;;;;;;;;;6051500;23;20218;-91
2024/01/12 12:07:27;;;;;;;122.03;36.13;;;;;;;;;;6087956;23;20699;-90
2024/01/12 12:10:33;;;;;;;136.67;38.57;;;;;;;;;;6088466;23;20202;-92
2024/01/12 12:13:39;;;;;;;136.70;36.67;;;;;;;;;;6086034;23;20170;-92
2024/01/12 12:16:44;;;;;;;111.00;33.97;;;;;;;;;;6086269;23;20167;-90
2024/01/12 12:19:55;;;;;;;143.63;38.53;;;;;;;;;;6088599;23;20185;-91
2024/01/12 12:23:03;;;;;;;150.87;38.87;;;;;;;;;;6087686;23;20163;-92
2024/01/12 12:26:10;;;;;;;129.93;37.50;;;;;;;;;;6087861;23;20167;-92
2024/01/12 12:29:17;;;;;;;121.00;37.07;;;;;;;;;;6083966;23;20205;-91
2024/01/12 12:32:24;;;;;;;131.83;37.77;;;;;;;;;;6084792;23;20173;-90
2024/01/12 12:35:45;;;;;;;124.57;36.83;;;;;;;;;;6090764;23;20162;-90
2024/01/12 12:38:55;;;;;;;127.00;36.03;;;;;;;;;;6089733;23;20179;-91
2024/01/12 12:42:03;;;;;;;127.73;35.37;;;;;;;;;;6087666;23;20211;-91
2024/01/12 12:45:10;;;;;;;121.00;35.50;;;;;;;;;;6086264;23;20504;-91
2024/01/12 12:48:17;;;;;;;128.07;36.90;;;;;;;;;;6084161;23;20215;-90
2024/01/12 12:51:22;;;;;;;131.13;35.80;;;;;;;;;;6086380;23;20158;-89
2024/01/12 12:57:57;;;;;;;131.73;36.77;;;;;;;;;;6090272;23;20235;-93
2024/01/12 13:01:03;;;;;;;126.47;37.50;;;;;;;;;;6087327;23;20631;-94
2024/01/12 13:04:08;;;;;;;134.10;37.40;;;;;;;;;;6083622;23;20190;-90
2024/01/12 13:07:16;;;;;;;124.87;37.03;;;;;;;;;;6085444;23;20154;-90
2024/01/12 13:10:24;;;;;;;135.33;37.47;;;;;;;;;;6085557;23;20238;-88
2024/01/12 13:13:32;;;;;;;146.27;38.67;;;;;;;;;;6087100;23;20171;-88
2024/01/12 13:16:38;;;;;;;117.23;36.23;;;;;;;;;;6087287;23;20175;-89
2024/01/12 13:19:44;;;;;;;142.97;36.73;;;;;;;;;;6085630;23;20170;-88
2024/01/12 13:22:50;;;;;;;136.13;37.77;;;;;;;;;;6083233;23;20158;-91
2024/01/12 13:25:57;;;;;;;121.47;36.90;;;;;;;;;;6085000;23;20651;-91
2024/01/12 13:29:04;;;;;;;131.50;36.17;;;;;;;;;;6084725;23;20525;-89
2024/01/12 13:32:10;;;;;;;110.90;33.07;;;;;;;;;;6084868;23;20178;-90
2024/01/12 13:35:17;;;;;;;129.07;35.83;;;;;;;;;;6084629;23;20171;-91
2024/01/12 13:38:23;;;;;;;127.17;36.13;;;;;;;;;;6087563;23;20174;-90
2024/01/12 13:41:30;;;;;;;118.17;34.80;;;;;;;;;;6085523;23;20174;-90
2024/01/12 13:44:35;;;;;;;116.83;35.87;;;;;;;;;;6085231;23;20214;-90
2024/01/12 13:47:42;;;;;;;124.10;36.13;;;;;;;;;;6087593;23;20178;-90
2024/01/12 13:50:48;;;;;;;115.80;35.90;;;;;;;;;;6086025;23;20242;-90
2024/01/12 13:53:54;;;;;;;116.40;33.60;;;;;;;;;;6082161;23;20170;-89
2024/01/12 13:57:03;;;;;;;135.57;38.17;;;;;;;;;;6085981;23;20166;-91
2024/01/12 14:00:12;;;;;;;132.67;38.20;;;;;;;;;;6083044;23;20306;-89
2024/01/12 14:03:18;;;;;;;123.03;35.70;;;;;;;;;;6083116;23;20215;-90
2024/01/12 14:06:23;;;;;;;130.03;35.13;;;;;;;;;;6086289;23;20174;-89
2024/01/12 14:09:30;;;;;;;114.47;34.07;;;;;;;;;;6085291;23;20246;-90
2024/01/12 14:12:37;;;;;;;132.13;37.90;;;;;;;;;;6087409;23;20175;-93
2024/01/12 14:15:44;;;;;;;132.80;38.40;;;;;;;;;;6085329;23;20171;-89
2024/01/12 14:18:49;;;;;;;125.93;38.10;;;;;;;;;;6083724;23;20166;-90
2024/01/12 14:21:55;;;;;;;140.00;40.97;;;;;;;;;;6082802;23;20178;-89
2024/01/12 14:25:01;;;;;;;139.60;38.80;;;;;;;;;;6082837;23;20212;-89
2024/01/12 14:28:09;;;;;;;128.17;37.57;;;;;;;;;;6084056;23;20175;-91
2024/01/12 14:31:15;;;;;;;140.90;39.30;;;;;;;;;;6082996;23;20214;-89
2024/01/12 14:34:21;;;;;;;140.60;40.43;;;;;;;;;;6081753;23;20175;-89
2024/01/12 14:37:26;;;;;;;129.00;38.63;;;;;;;;;;6082277;23;20230;-90
2024/01/12 14:40:31;;;;;;;141.17;40.37;;;;;;;;;;6082763;23;20295;-88
2024/01/12 14:43:38;;;;;;;138.77;39.17;;;;;;;;;;6081158;23;20166;-90
2024/01/12 14:46:43;;;;;;;131.40;38.03;;;;;;;;;;6081504;23;20174;-90
2024/01/12 14:49:50;;;;;;;133.33;37.73;;;;;;;;;;6081151;23;20262;-90
2024/01/12 14:52:56;;;;;;;135.70;38.83;;;;;;;;;;6082591;23;20174;-89
2024/01/12 14:56:01;;;;;;;132.77;36.67;;;;;;;;;;6081892;23;20228;-91
2024/01/12 14:59:08;;;;;;;123.70;36.17;;;;;;;;;;6081657;23;20167;-91
2024/01/12 15:02:13;;;;;;;115.47;34.50;;;;;;;;;;6085051;23;20691;-92
2024/01/12 15:05:19;;;;;;;127.57;34.97;;;;;;;;;;6085537;23;20243;-92
2024/01/12 15:08:24;;;;;;;114.40;35.50;;;;;;;;;;6081626;23;20270;-92
2024/01/12 15:11:30;;;;;;;108.37;34.90;;;;;;;;;;6084889;23;20170;-88
2024/01/12 15:14:37;;;;;;;119.27;36.83;;;;;;;;;;6081879;23;20174;-90
2024/01/12 15:17:42;;;;;;;116.23;35.70;;;;;;;;;;6082914;23;20170;-88
2024/01/12 15:20:48;;;;;;;106.33;33.10;;;;;;;;;;6080202;23;20183;-88
2024/01/12 15:23:53;;;;;;;117.10;36.33;;;;;;;;;;6082508;23;20207;-87
2024/01/12 15:26:58;;;;;;;115.63;34.70;;;;;;;;;;6079176;23;20182;-90
2024/01/12 15:30:06;;;;;;;137.70;37.33;;;;;;;;;;6083209;23;20207;-88
2024/01/12 15:33:12;;;;;;;143.30;48.07;;;;;;;;;;6082268;23;20167;-88
2024/01/12 15:36:17;;;;;;;120.50;37.97;;;;;;;;;;6082571;23;20174;-90
2024/01/12 15:39:23;;;;;;;117.77;34.53;;;;;;;;;;6082673;23;20239;-90
2024/01/12 15:42:29;;;;;;;123.97;36.27;;;;;;;;;;6086014;23;20243;-88
2024/01/12 15:45:36;;;;;;;118.53;37.07;;;;;;;;;;6085920;23;20170;-88
2024/01/12 15:52:08;;;;;;;116.40;35.73;;;;;;;;;;6089005;23;20195;-91
2024/01/12 15:55:19;;;;;;;124.73;35.57;;;;;;;;;;6086953;23;20186;-90
2024/01/12 15:58:29;;;;;;;121.40;37.93;;;;;;;;;;6088345;23;20175;-91
2024/01/12 16:01:39;;;;;;;118.93;34.13;;;;;;;;;;6086766;23;20192;-90
2024/01/12 16:04:46;;;;;;;114.40;34.47;;;;;;;;;;6087158;23;20196;-90
2024/01/12 16:07:56;;;;;;;111.93;35.33;;;;;;;;;;6088221;23;20191;-89
2024/01/12 16:11:07;;;;;;;119.30;36.93;;;;;;;;;;6090743;23;20206;-93
2024/01/12 16:14:13;;;;;;;116.10;35.77;;;;;;;;;;6088834;23;20170;-91
2024/01/12 16:17:21;;;;;;;107.43;31.93;;;;;;;;;;6088128;23;20159;-92
2024/01/12 16:20:29;;;;;;;112.37;36.07;;;;;;;;;;6090277;23;20179;-91
2024/01/12 16:23:35;;;;;;;114.37;34.60;;;;;;;;;;6089383;23;20224;-93
2024/01/12 16:26:40;;;;;;;129.70;35.73;;;;;;;;;;6089222;23;20188;-91
2024/01/12 16:29:46;;;;;;;122.20;34.17;;;;;;;;;;6088810;23;20193;-91
2024/01/12 16:32:54;;;;;;;107.57;32.50;;;;;;;;;;6089846;23;20151;-90
2024/01/12 16:36:00;;;;;;;117.50;35.53;;;;;;;;;;6072811;23;20174;-92
2024/01/12 16:39:06;;;;;;;112.17;30.90;;;;;;;;;;6087458;23;20174;-91
2024/01/12 16:42:12;;;;;;;86.63;25.87;;;;;;;;;;6085696;23;20215;-89
2024/01/12 16:45:20;;;;;;;108.47;31.33;;;;;;;;;;6088314;23;20238;-90
2024/01/12 16:48:36;;;;;;;98.60;33.27;;;;;;;;;;6088241;23;20203;-90
2024/01/12 16:51:42;;;;;;;108.37;31.83;;;;;;;;;;6089501;23;20203;-92
2024/01/12 16:54:49;;;;;;;81.60;25.50;;;;;;;;;;6071940;23;20590;-91
2024/01/12 16:57:56;;;;;;;66.57;20.03;;;;;;;;;;6089363;23;20174;-90
2024/01/12 17:01:03;;;;;;;92.67;28.40;;;;;;;;;;6088854;23;20170;-91
2024/01/12 17:04:11;;;;;;;110.47;32.03;;;;;;;;;;6087527;23;20238;-92
2024/01/12 17:07:18;;;;;;;101.30;29.47;;;;;;;;;;6088709;23;20171;-91
2024/01/12 17:10:24;;;;;;;102.00;33.27;;;;;;;;;;6089526;23;20246;-92
2024/01/12 17:13:30;;;;;;;115.57;34.40;;;;;;;;;;6088640;23;20187;-91
2024/01/12 17:16:40;;;;;;;114.17;34.33;;;;;;;;;;6087536;23;20219;-89
2024/01/12 17:19:48;;;;;;;104.73;31.67;;;;;;;;;;6087932;23;20679;-89
2024/01/12 17:22:56;;;;;;;104.10;30.80;;;;;;;;;;6088320;23;20215;-90
2024/01/12 17:26:09;;;;;;;105.37;31.13;;;;;;;;;;6089303;23;20176;-89
2024/01/12 17:29:16;;;;;;;101.20;32.57;;;;;;;;;;6088497;23;20178;-89
2024/01/12 17:32:26;;;;;;;96.27;28.07;;;;;;;;;;6087534;23;20158;-89
2024/01/12 17:35:33;;;;;;;102.87;32.17;;;;;;;;;;6087609;23;20220;-92
2024/01/12 17:38:40;;;;;;;107.33;34.20;;;;;;;;;;6087189;23;20246;-89
2024/01/12 17:41:46;;;;;;;94.90;30.07;;;;;;;;;;6088462;23;20170;-88
2024/01/12 17:44:52;;;;;;;104.97;30.70;;;;;;;;;;6090512;23;20203;-91
2024/01/12 17:47:58;;;;;;;111.20;32.67;;;;;;;;;;6089798;23;20166;-88
2024/01/12 17:51:09;;;;;;;122.47;37.03;;;;;;;;;;6089586;23;20190;-92
2024/01/12 17:54:19;;;;;;;114.10;34.37;;;;;;;;;;6089343;23;20170;-91
2024/01/12 17:57:25;;;;;;;99.27;28.50;;;;;;;;;;6088208;23;20513;-88
2024/01/12 18:00:31;;;;;;;117.93;34.03;;;;;;;;;;6087496;23;20158;-90
2024/01/12 18:03:41;;;;;;;131.30;33.60;;;;;;;;;;6087856;23;20667;-90
2024/01/12 18:06:49;;;;;;;121.00;35.80;;;;;;;;;;6089953;23;20225;-88
2024/01/12 18:09:55;;;;;;;109.13;31.87;;;;;;;;;;6088616;23;20194;-88
2024/01/12 18:13:21;;;;;;;96.43;27.17;;;;;;;;;;6089685;23;20225;-90
2024/01/12 18:16:29;;;;;;;114.87;30.93;;;;;;;;;;6086460;23;20242;-93
2024/01/12 18:30:26;;;;;;;111.63;30.63;;;;;;;;;;6091508;23;20529;-89
2024/01/12 23:00:41;;;;;;;95.73;25.73;;;;;;;;;;6024162;23;20511;-90
2024/01/12 23:03:54;;;;;;;104.73;27.00;;;;;;;;;;6058967;23;20195;-91
2024/01/12 23:06:59;;;;;;;97.23;26.67;;;;;;;;;;6063784;23;20253;-92
2024/01/12 23:10:06;;;;;;;104.70;28.10;;;;;;;;;;6065881;23;20206;-91
2024/01/12 23:13:14;;;;;;;90.67;24.63;;;;;;;;;;6058840;23;20184;-90
2024/01/12 23:16:20;;;;;;;90.03;24.23;;;;;;;;;;6062285;23;20678;-90
2024/01/12 23:19:27;;;;;;;89.40;22.13;;;;;;;;;;6062745;23;20175;-92
2024/01/12 23:22:33;;;;;;;105.03;27.33;;;;;;;;;;6063772;23;20208;-91
2024/01/12 23:25:40;;;;;;;95.73;26.80;;;;;;;;;;6063824;23;20179;-91
2024/01/12 23:28:47;;;;;;;97.13;26.77;;;;;;;;;;6062516;23;20155;-91
2024/01/12 23:31:54;;;;;;;82.23;24.57;;;;;;;;;;6062864;23;20235;-91
2024/01/12 23:35:02;;;;;;;83.13;24.00;;;;;;;;;;6062628;23;20159;-92
2024/01/12 23:38:09;;;;;;;73.83;21.73;;;;;;;;;;6062082;23;20159;-91
2024/01/12 23:41:15;;;;;;;73.07;20.43;;;;;;;;;;6062398;23;20235;-92
2024/01/12 23:44:20;;;;;;;68.87;19.27;;;;;;;;;;6061426;23;20212;-91
2024/01/12 23:47:26;;;;;;;69.50;18.83;;;;;;;;;;6059617;23;20166;-90
2024/01/12 23:50:33;;;;;;;58.53;16.63;;;;;;;;;;6059243;23;20182;-92
2024/01/12 23:53:39;;;;;;;59.30;17.63;;;;;;;;;;6061616;23;20166;-91
2024/01/12 23:56:44;;;;;;;53.60;16.50;;;;;;;;;;6063286;23;20227;-91
2024/01/12 23:59:51;;;;;;;62.33;15.70;;;;;;;;;;6063334;23;20189;-90
